sensor_id;sensor_type;location;lat;lon;timestamp;temperature;humidity
17307;DHT22;8771;48.048;7.682;2023-04-03T00:02:06;6.90;72.50
17307;DHT22;8771;48.048;7.682;2023-04-03T00:07:09;6.90;72.50
17307;DHT22;8771;48.048;7.682;2023-04-03T00:12:13;6.90;72.50
17307;DHT22;8771;48.048;7.682;2023-04-03T00:17:17;6.80;72.50
17307;DHT22;8771;48.048;7.682;2023-04-03T00:22:20;6.80;72.50
17307;DHT22;8771;48.048;7.682;2023-04-03T00:27:23;6.70;72.50
17307;DHT22;8771;48.048;7.682;2023-04-03T00:32:25;6.70;72.50
17307;DHT22;8771;48.048;7.682;2023-04-03T00:37:27;6.60;72.50
17307;DHT22;8771;48.048;7.682;2023-04-03T00:42:32;6.60;72.50
17307;DHT22;8771;48.048;7.682;2023-04-03T00:47:35;6.60;72.60
17307;DHT22;8771;48.048;7.682;2023-04-03T00:52:39;6.50;72.50
17307;DHT22;8771;48.048;7.682;2023-04-03T00:57:43;6.50;72.40
17307;DHT22;8771;48.048;7.682;2023-04-03T01:02:48;6.50;72.40
17307;DHT22;8771;48.048;7.682;2023-04-03T01:07:51;6.50;72.40
17307;DHT22;8771;48.048;7.682;2023-04-03T01:12:56;6.40;72.30
17307;DHT22;8771;48.048;7.682;2023-04-03T01:17:59;6.40;72.30
17307;DHT22;8771;48.048;7.682;2023-04-03T01:23:10;6.40;72.30
17307;DHT22;8771;48.048;7.682;2023-04-03T01:28:18;6.40;72.30
17307;DHT22;8771;48.048;7.682;2023-04-03T01:33:23;6.50;72.30
17307;DHT22;8771;48.048;7.682;2023-04-03T01:38:25;6.50;72.20
17307;DHT22;8771;48.048;7.682;2023-04-03T01:43:28;6.50;72.20
17307;DHT22;8771;48.048;7.682;2023-04-03T01:48:33;6.40;72.20
17307;DHT22;8771;48.048;7.682;2023-04-03T01:53:35;6.30;72.20
17307;DHT22;8771;48.048;7.682;2023-04-03T01:58:38;6.40;72.20
17307;DHT22;8771;48.048;7.682;2023-04-03T02:03:42;6.30;72.20
17307;DHT22;8771;48.048;7.682;2023-04-03T02:08:44;6.30;72.20
17307;DHT22;8771;48.048;7.682;2023-04-03T02:13:47;6.30;72.20
17307;DHT22;8771;48.048;7.682;2023-04-03T02:18:52;6.30;72.10
17307;DHT22;8771;48.048;7.682;2023-04-03T02:23:54;6.30;72.10
17307;DHT22;8771;48.048;7.682;2023-04-03T02:28:58;6.30;72.10
17307;DHT22;8771;48.048;7.682;2023-04-03T02:34:01;6.30;72.10
17307;DHT22;8771;48.048;7.682;2023-04-03T02:39:04;6.30;72.20
17307;DHT22;8771;48.048;7.682;2023-04-03T02:44:09;6.20;72.10
17307;DHT22;8771;48.048;7.682;2023-04-03T02:49:13;6.20;72.10
17307;DHT22;8771;48.048;7.682;2023-04-03T02:54:17;6.20;72.10
17307;DHT22;8771;48.048;7.682;2023-04-03T02:59:19;6.10;72.10
17307;DHT22;8771;48.048;7.682;2023-04-03T03:04:23;6.20;72.10
17307;DHT22;8771;48.048;7.682;2023-04-03T03:09:26;6.10;72.10
17307;DHT22;8771;48.048;7.682;2023-04-03T03:14:30;6.10;72.10
17307;DHT22;8771;48.048;7.682;2023-04-03T03:19:34;6.10;72.10
17307;DHT22;8771;48.048;7.682;2023-04-03T03:24:38;6.10;72.10
17307;DHT22;8771;48.048;7.682;2023-04-03T03:29:42;6.10;72.10
17307;DHT22;8771;48.048;7.682;2023-04-03T03:34:46;6.10;72.10
17307;DHT22;8771;48.048;7.682;2023-04-03T03:39:48;6.10;72.10
17307;DHT22;8771;48.048;7.682;2023-04-03T03:44:50;6.10;72.10
17307;DHT22;8771;48.048;7.682;2023-04-03T03:49:54;6.10;72.00
17307;DHT22;8771;48.048;7.682;2023-04-03T03:54:56;6.10;72.00
17307;DHT22;8771;48.048;7.682;2023-04-03T03:59:58;6.20;72.00
17307;DHT22;8771;48.048;7.682;2023-04-03T04:05:02;6.20;71.90
17307;DHT22;8771;48.048;7.682;2023-04-03T04:10:05;6.30;71.90
17307;DHT22;8771;48.048;7.682;2023-04-03T04:15:08;6.30;71.80
17307;DHT22;8771;48.048;7.682;2023-04-03T04:20:12;6.30;71.80
17307;DHT22;8771;48.048;7.682;2023-04-03T04:25:14;6.30;71.90
17307;DHT22;8771;48.048;7.682;2023-04-03T04:30:16;6.20;71.90
17307;DHT22;8771;48.048;7.682;2023-04-03T04:35:19;6.20;71.90
17307;DHT22;8771;48.048;7.682;2023-04-03T04:40:21;6.10;71.90
17307;DHT22;8771;48.048;7.682;2023-04-03T04:45:23;6.10;72.00
17307;DHT22;8771;48.048;7.682;2023-04-03T04:50:27;6.00;72.00
17307;DHT22;8771;48.048;7.682;2023-04-03T04:55:29;6.00;72.00
17307;DHT22;8771;48.048;7.682;2023-04-03T05:00:31;6.10;72.10
17307;DHT22;8771;48.048;7.682;2023-04-03T05:05:34;6.10;72.10
17307;DHT22;8771;48.048;7.682;2023-04-03T05:10:36;6.10;72.00
17307;DHT22;8771;48.048;7.682;2023-04-03T05:15:38;6.10;72.00
17307;DHT22;8771;48.048;7.682;2023-04-03T05:20:42;6.10;72.00
17307;DHT22;8771;48.048;7.682;2023-04-03T05:25:44;6.10;71.90
17307;DHT22;8771;48.048;7.682;2023-04-03T05:30:53;6.10;71.90
17307;DHT22;8771;48.048;7.682;2023-04-03T05:36:02;6.10;71.90
17307;DHT22;8771;48.048;7.682;2023-04-03T05:41:05;6.10;71.90
17307;DHT22;8771;48.048;7.682;2023-04-03T05:46:10;6.10;71.90
17307;DHT22;8771;48.048;7.682;2023-04-03T05:51:17;6.10;71.90
17307;DHT22;8771;48.048;7.682;2023-04-03T05:56:19;6.10;71.90
17307;DHT22;8771;48.048;7.682;2023-04-03T06:01:21;6.10;71.80
17307;DHT22;8771;48.048;7.682;2023-04-03T06:06:25;6.20;71.90
17307;DHT22;8771;48.048;7.682;2023-04-03T06:11:27;6.20;71.80
17307;DHT22;8771;48.048;7.682;2023-04-03T06:16:29;6.30;71.80
17307;DHT22;8771;48.048;7.682;2023-04-03T06:21:33;6.40;71.80
17307;DHT22;8771;48.048;7.682;2023-04-03T06:26:36;6.40;71.60
17307;DHT22;8771;48.048;7.682;2023-04-03T06:31:38;6.50;71.60
17307;DHT22;8771;48.048;7.682;2023-04-03T06:36:42;6.60;71.50
17307;DHT22;8771;48.048;7.682;2023-04-03T06:41:45;6.60;71.40
17307;DHT22;8771;48.048;7.682;2023-04-03T06:46:47;6.70;71.30
17307;DHT22;8771;48.048;7.682;2023-04-03T06:51:51;6.80;71.30
17307;DHT22;8771;48.048;7.682;2023-04-03T06:56:53;6.80;71.20
17307;DHT22;8771;48.048;7.682;2023-04-03T07:01:55;6.90;71.20
17307;DHT22;8771;48.048;7.682;2023-04-03T07:07:00;7.00;71.10
17307;DHT22;8771;48.048;7.682;2023-04-03T07:12:02;7.10;71.00
17307;DHT22;8771;48.048;7.682;2023-04-03T07:17:04;7.20;70.90
17307;DHT22;8771;48.048;7.682;2023-04-03T07:22:08;7.30;70.80
17307;DHT22;8771;48.048;7.682;2023-04-03T07:27:11;7.40;70.80
17307;DHT22;8771;48.048;7.682;2023-04-03T07:32:14;7.50;70.70
17307;DHT22;8771;48.048;7.682;2023-04-03T07:37:18;7.60;70.60
17307;DHT22;8771;48.048;7.682;2023-04-03T07:42:21;7.70;70.50
17307;DHT22;8771;48.048;7.682;2023-04-03T07:47:23;7.90;70.50
17307;DHT22;8771;48.048;7.682;2023-04-03T07:52:26;8.00;70.40
17307;DHT22;8771;48.048;7.682;2023-04-03T07:57:28;8.20;70.30
17307;DHT22;8771;48.048;7.682;2023-04-03T08:02:31;8.30;70.10
17307;DHT22;8771;48.048;7.682;2023-04-03T08:07:36;8.50;70.00
17307;DHT22;8771;48.048;7.682;2023-04-03T08:12:38;8.60;69.80
17307;DHT22;8771;48.048;7.682;2023-04-03T08:17:41;8.80;69.80
17307;DHT22;8771;48.048;7.682;2023-04-03T08:22:44;8.90;69.80
17307;DHT22;8771;48.048;7.682;2023-04-03T08:27:46;8.90;69.70
17307;DHT22;8771;48.048;7.682;2023-04-03T08:32:48;9.00;69.70
17307;DHT22;8771;48.048;7.682;2023-04-03T08:37:52;9.10;69.70
17307;DHT22;8771;48.048;7.682;2023-04-03T08:43:05;9.30;69.50
17307;DHT22;8771;48.048;7.682;2023-04-03T08:48:12;9.50;69.30
17307;DHT22;8771;48.048;7.682;2023-04-03T08:53:21;9.50;69.10
17307;DHT22;8771;48.048;7.682;2023-04-03T08:58:26;9.40;69.30
17307;DHT22;8771;48.048;7.682;2023-04-03T09:03:31;9.30;69.40
17307;DHT22;8771;48.048;7.682;2023-04-03T09:08:42;9.50;69.40
17307;DHT22;8771;48.048;7.682;2023-04-03T09:13:49;9.70;69.00
17307;DHT22;8771;48.048;7.682;2023-04-03T09:18:58;9.90;68.80
17307;DHT22;8771;48.048;7.682;2023-04-03T09:24:06;9.90;68.70
17307;DHT22;8771;48.048;7.682;2023-04-03T09:29:15;10.00;68.60
17307;DHT22;8771;48.048;7.682;2023-04-03T09:34:23;10.20;68.50
17307;DHT22;8771;48.048;7.682;2023-04-03T09:39:29;10.20;68.40
17307;DHT22;8771;48.048;7.682;2023-04-03T09:44:32;10.30;68.40
17307;DHT22;8771;48.048;7.682;2023-04-03T09:49:34;10.50;68.10
17307;DHT22;8771;48.048;7.682;2023-04-03T09:54:38;10.70;68.00
17307;DHT22;8771;48.048;7.682;2023-04-03T09:59:46;10.70;67.80
17307;DHT22;8771;48.048;7.682;2023-04-03T10:04:49;10.70;67.80
17307;DHT22;8771;48.048;7.682;2023-04-03T10:09:56;10.50;68.00
17307;DHT22;8771;48.048;7.682;2023-04-03T10:15:00;10.60;68.10
17307;DHT22;8771;48.048;7.682;2023-04-03T10:25:15;11.00;67.00
17307;DHT22;8771;48.048;7.682;2023-04-03T10:30:32;11.00;67.60
17307;DHT22;8771;48.048;7.682;2023-04-03T10:35:44;11.10;67.60
17307;DHT22;8771;48.048;7.682;2023-04-03T10:40:55;11.10;67.60
17307;DHT22;8771;48.048;7.682;2023-04-03T10:46:02;11.00;67.80
17307;DHT22;8771;48.048;7.682;2023-04-03T10:51:16;10.90;67.90
17307;DHT22;8771;48.048;7.682;2023-04-03T10:56:28;10.80;68.00
17307;DHT22;8771;48.048;7.682;2023-04-03T11:01:35;10.70;68.10
17307;DHT22;8771;48.048;7.682;2023-04-03T11:06:41;10.60;68.10
17307;DHT22;8771;48.048;7.682;2023-04-03T11:11:47;10.60;68.00
17307;DHT22;8771;48.048;7.682;2023-04-03T11:16:57;10.70;68.10
17307;DHT22;8771;48.048;7.682;2023-04-03T11:22:04;10.80;67.70
17307;DHT22;8771;48.048;7.682;2023-04-03T11:27:13;10.90;67.60
17307;DHT22;8771;48.048;7.682;2023-04-03T11:32:31;11.00;67.50
17307;DHT22;8771;48.048;7.682;2023-04-03T11:37:38;11.00;68.20
17307;DHT22;8771;48.048;7.682;2023-04-03T11:42:46;11.20;67.40
17307;DHT22;8771;48.048;7.682;2023-04-03T11:47:51;11.30;67.20
17307;DHT22;8771;48.048;7.682;2023-04-03T11:53:01;11.30;67.00
17307;DHT22;8771;48.048;7.682;2023-04-03T11:58:12;11.10;67.30
17307;DHT22;8771;48.048;7.682;2023-04-03T12:08:55;11.20;67.30
17307;DHT22;8771;48.048;7.682;2023-04-03T12:14:04;11.30;67.00
17307;DHT22;8771;48.048;7.682;2023-04-03T12:19:29;11.40;66.80
17307;DHT22;8771;48.048;7.682;2023-04-03T12:24:33;11.40;66.70
17307;DHT22;8771;48.048;7.682;2023-04-03T12:29:39;11.40;66.90
17307;DHT22;8771;48.048;7.682;2023-04-03T12:35:04;11.40;66.90
17307;DHT22;8771;48.048;7.682;2023-04-03T12:40:20;11.50;66.90
17307;DHT22;8771;48.048;7.682;2023-04-03T12:45:25;11.50;66.70
17307;DHT22;8771;48.048;7.682;2023-04-03T12:50:28;11.40;66.80
17307;DHT22;8771;48.048;7.682;2023-04-03T12:55:33;11.30;66.80
17307;DHT22;8771;48.048;7.682;2023-04-03T13:00:37;11.20;66.80
17307;DHT22;8771;48.048;7.682;2023-04-03T13:05:44;11.30;66.80
17307;DHT22;8771;48.048;7.682;2023-04-03T13:10:52;11.20;66.80
17307;DHT22;8771;48.048;7.682;2023-04-03T13:15:57;11.20;66.90
17307;DHT22;8771;48.048;7.682;2023-04-03T13:21:03;11.20;66.80
17307;DHT22;8771;48.048;7.682;2023-04-03T13:26:07;11.20;66.80
17307;DHT22;8771;48.048;7.682;2023-04-03T13:31:19;11.20;66.70
17307;DHT22;8771;48.048;7.682;2023-04-03T13:36:23;11.30;66.50
17307;DHT22;8771;48.048;7.682;2023-04-03T13:41:30;11.40;66.50
17307;DHT22;8771;48.048;7.682;2023-04-03T13:46:33;11.30;66.50
17307;DHT22;8771;48.048;7.682;2023-04-03T13:51:39;11.40;66.50
17307;DHT22;8771;48.048;7.682;2023-04-03T13:56:43;11.30;66.50
17307;DHT22;8771;48.048;7.682;2023-04-03T14:01:51;11.10;66.70
17307;DHT22;8771;48.048;7.682;2023-04-03T14:06:55;11.00;66.80
17307;DHT22;8771;48.048;7.682;2023-04-03T14:12:02;11.00;66.80
17307;DHT22;8771;48.048;7.682;2023-04-03T14:17:15;11.00;66.70
17307;DHT22;8771;48.048;7.682;2023-04-03T14:22:20;11.10;66.70
17307;DHT22;8771;48.048;7.682;2023-04-03T14:27:25;11.10;66.50
17307;DHT22;8771;48.048;7.682;2023-04-03T14:32:28;11.10;66.60
17307;DHT22;8771;48.048;7.682;2023-04-03T14:37:31;11.00;66.70
17307;DHT22;8771;48.048;7.682;2023-04-03T14:42:36;11.00;66.70
17307;DHT22;8771;48.048;7.682;2023-04-03T14:47:43;11.00;66.70
17307;DHT22;8771;48.048;7.682;2023-04-03T14:52:48;10.90;66.70
17307;DHT22;8771;48.048;7.682;2023-04-03T14:57:51;10.80;66.70
17307;DHT22;8771;48.048;7.682;2023-04-03T15:02:54;10.70;66.70
17307;DHT22;8771;48.048;7.682;2023-04-03T15:07:58;10.60;66.80
17307;DHT22;8771;48.048;7.682;2023-04-03T15:13:01;10.50;66.80
17307;DHT22;8771;48.048;7.682;2023-04-03T15:18:05;10.40;66.90
17307;DHT22;8771;48.048;7.682;2023-04-03T15:23:08;10.30;66.90
17307;DHT22;8771;48.048;7.682;2023-04-03T15:28:18;10.30;66.80
17307;DHT22;8771;48.048;7.682;2023-04-03T15:33:22;10.30;66.80
17307;DHT22;8771;48.048;7.682;2023-04-03T15:38:24;10.30;66.80
17307;DHT22;8771;48.048;7.682;2023-04-03T15:43:27;10.30;66.70
17307;DHT22;8771;48.048;7.682;2023-04-03T15:48:30;10.30;66.60
17307;DHT22;8771;48.048;7.682;2023-04-03T15:53:32;10.20;66.60
17307;DHT22;8771;48.048;7.682;2023-04-03T15:58:34;10.10;66.60
17307;DHT22;8771;48.048;7.682;2023-04-03T16:03:40;10.10;66.70
17307;DHT22;8771;48.048;7.682;2023-04-03T16:08:46;10.10;66.60
17307;DHT22;8771;48.048;7.682;2023-04-03T16:13:49;10.10;66.60
17307;DHT22;8771;48.048;7.682;2023-04-03T16:18:53;10.00;66.60
17307;DHT22;8771;48.048;7.682;2023-04-03T16:23:56;10.00;66.60
17307;DHT22;8771;48.048;7.682;2023-04-03T16:28:59;10.00;66.60
17307;DHT22;8771;48.048;7.682;2023-04-03T16:34:02;9.90;66.50
17307;DHT22;8771;48.048;7.682;2023-04-03T16:39:04;9.80;66.60
17307;DHT22;8771;48.048;7.682;2023-04-03T16:44:06;9.70;66.60
17307;DHT22;8771;48.048;7.682;2023-04-03T16:49:10;9.60;66.60
17307;DHT22;8771;48.048;7.682;2023-04-03T16:54:12;9.60;66.70
17307;DHT22;8771;48.048;7.682;2023-04-03T16:59:14;9.50;66.70
17307;DHT22;8771;48.048;7.682;2023-04-03T17:04:17;9.40;66.70
17307;DHT22;8771;48.048;7.682;2023-04-03T17:09:19;9.40;66.70
17307;DHT22;8771;48.048;7.682;2023-04-03T17:14:21;9.30;66.70
17307;DHT22;8771;48.048;7.682;2023-04-03T17:19:25;9.30;66.60
17307;DHT22;8771;48.048;7.682;2023-04-03T17:24:27;9.30;66.70
17307;DHT22;8771;48.048;7.682;2023-04-03T17:29:30;9.20;66.70
17307;DHT22;8771;48.048;7.682;2023-04-03T17:34:33;9.20;66.70
17307;DHT22;8771;48.048;7.682;2023-04-03T17:39:36;9.10;66.70
17307;DHT22;8771;48.048;7.682;2023-04-03T17:44:38;9.00;66.70
17307;DHT22;8771;48.048;7.682;2023-04-03T17:49:41;8.90;66.80
17307;DHT22;8771;48.048;7.682;2023-04-03T17:54:44;8.80;66.70
17307;DHT22;8771;48.048;7.682;2023-04-03T17:59:46;8.70;66.70
17307;DHT22;8771;48.048;7.682;2023-04-03T18:04:51;8.70;66.70
17307;DHT22;8771;48.048;7.682;2023-04-03T18:09:54;8.70;66.70
17307;DHT22;8771;48.048;7.682;2023-04-03T18:14:58;8.60;66.70
17307;DHT22;8771;48.048;7.682;2023-04-03T18:20:02;8.60;66.70
17307;DHT22;8771;48.048;7.682;2023-04-03T18:25:07;8.50;66.60
17307;DHT22;8771;48.048;7.682;2023-04-03T18:30:13;8.50;66.60
17307;DHT22;8771;48.048;7.682;2023-04-03T18:35:24;8.50;66.50
17307;DHT22;8771;48.048;7.682;2023-04-03T18:40:27;8.40;67.20
17307;DHT22;8771;48.048;7.682;2023-04-03T18:45:45;8.30;67.70
17307;DHT22;8771;48.048;7.682;2023-04-03T18:55:50;8.30;66.60
17307;DHT22;8771;48.048;7.682;2023-04-03T19:00:52;8.20;66.30
17307;DHT22;8771;48.048;7.682;2023-04-03T19:05:56;8.10;66.10
17307;DHT22;8771;48.048;7.682;2023-04-03T19:10:59;8.10;66.20
17307;DHT22;8771;48.048;7.682;2023-04-03T19:16:01;8.00;66.10
17307;DHT22;8771;48.048;7.682;2023-04-03T19:26:07;7.90;65.40
17307;DHT22;8771;48.048;7.682;2023-04-03T19:31:11;7.90;66.10
17307;DHT22;8771;48.048;7.682;2023-04-03T19:36:16;7.80;66.00
17307;DHT22;8771;48.048;7.682;2023-04-03T19:41:19;7.70;66.10
17307;DHT22;8771;48.048;7.682;2023-04-03T19:46:23;7.60;66.10
17307;DHT22;8771;48.048;7.682;2023-04-03T19:51:27;7.50;66.10
17307;DHT22;8771;48.048;7.682;2023-04-03T19:56:29;7.40;66.20
17307;DHT22;8771;48.048;7.682;2023-04-03T20:01:31;7.40;66.20
17307;DHT22;8771;48.048;7.682;2023-04-03T20:06:36;7.30;66.10
17307;DHT22;8771;48.048;7.682;2023-04-03T20:11:38;7.30;66.10
17307;DHT22;8771;48.048;7.682;2023-04-03T20:16:41;7.20;66.10
17307;DHT22;8771;48.048;7.682;2023-04-03T20:21:44;7.20;66.10
17307;DHT22;8771;48.048;7.682;2023-04-03T20:26:47;7.10;66.10
17307;DHT22;8771;48.048;7.682;2023-04-03T20:31:49;7.10;66.10
17307;DHT22;8771;48.048;7.682;2023-04-03T20:36:54;7.00;66.10
17307;DHT22;8771;48.048;7.682;2023-04-03T20:41:56;7.00;66.10
17307;DHT22;8771;48.048;7.682;2023-04-03T20:46:59;6.90;66.00
17307;DHT22;8771;48.048;7.682;2023-04-03T20:52:02;6.80;66.00
17307;DHT22;8771;48.048;7.682;2023-04-03T20:57:05;6.80;66.10
17307;DHT22;8771;48.048;7.682;2023-04-03T21:02:07;6.70;66.00
17307;DHT22;8771;48.048;7.682;2023-04-03T21:24:04;6.60;65.80
17307;DHT22;8771;48.048;7.682;2023-04-03T21:29:10;6.60;65.80
17307;DHT22;8771;48.048;7.682;2023-04-03T21:34:13;6.60;65.80
17307;DHT22;8771;48.048;7.682;2023-04-03T21:39:15;6.50;65.70
17307;DHT22;8771;48.048;7.682;2023-04-03T21:44:18;6.50;65.70
17307;DHT22;8771;48.048;7.682;2023-04-03T21:49:23;6.50;65.70
17307;DHT22;8771;48.048;7.682;2023-04-03T21:54:25;6.40;65.70
17307;DHT22;8771;48.048;7.682;2023-04-03T21:59:28;6.30;65.70
17307;DHT22;8771;48.048;7.682;2023-04-03T22:04:31;6.30;65.70
17307;DHT22;8771;48.048;7.682;2023-04-03T22:09:34;6.20;65.70
17307;DHT22;8771;48.048;7.682;2023-04-03T22:14:37;6.20;65.70
17307;DHT22;8771;48.048;7.682;2023-04-03T22:19:42;6.20;65.70
17307;DHT22;8771;48.048;7.682;2023-04-03T22:24:44;6.10;65.70
17307;DHT22;8771;48.048;7.682;2023-04-03T22:29:49;6.10;65.70
17307;DHT22;8771;48.048;7.682;2023-04-03T22:34:52;6.00;65.60
17307;DHT22;8771;48.048;7.682;2023-04-03T22:39:55;6.00;65.60
17307;DHT22;8771;48.048;7.682;2023-04-03T22:44:57;5.90;65.70
17307;DHT22;8771;48.048;7.682;2023-04-03T22:50:02;5.90;65.70
17307;DHT22;8771;48.048;7.682;2023-04-03T22:55:05;5.90;65.80
17307;DHT22;8771;48.048;7.682;2023-04-03T23:00:08;5.90;65.80
17307;DHT22;8771;48.048;7.682;2023-04-03T23:05:12;5.80;65.70
17307;DHT22;8771;48.048;7.682;2023-04-03T23:10:15;5.80;65.70
17307;DHT22;8771;48.048;7.682;2023-04-03T23:15:17;5.70;65.70
17307;DHT22;8771;48.048;7.682;2023-04-03T23:20:22;5.70;65.80
17307;DHT22;8771;48.048;7.682;2023-04-03T23:25:26;5.60;65.80
17307;DHT22;8771;48.048;7.682;2023-04-03T23:30:28;5.60;65.80
17307;DHT22;8771;48.048;7.682;2023-04-03T23:35:32;5.50;65.80
